Terminal Aerodrome Forecast
Issued by NWS Pittsburgh, PA

Current Version | Previous Version | Text Only | Print | Product List | Glossary Off
Versions: 1 2 3 4 5 6 7 8 9 10 11 12 13 14 15 16 17 18 19 20 21 22 23 24 25 26 27 28 29

000
FTUS41 KPBZ 271837 AAA
TAFPIT
TAF AMD
KPIT 271837Z 2719/2824 15010KT 5SM -RA BR BKN020 OVC025
     FM272200 15012G20KT P6SM VCTS BKN020CB
     FM280500 20008KT 5SM BR OVC004
     FM281200 22005KT 1 1/2SM BR VCSH OVC007
     FM281500 28016KT 2SM BR OVC009=

USA.gov is the U.S. government's official web portal to all federal, state and local government web resources and services.